Time;durP1;ratioP1;P1;durP2;ratioP2;P2;SDS_P1;SDS_P2;PMS_P1;PMS_P2;Temp;Humidity;BMP_temperature;BMP_pressure;BME280_temperature;BME280_humidity;BME280_pressure;Samples;Min_cycle;Max_cycle;Signal;HPM_P1;HPM_P2
2023/02/04 00:00:51;;;;;;;4.25;2.42;;;3.90;73.90;;;;;;5054481;28;20028;-69
2023/02/04 00:03:16;;;;;;;5.72;2.85;;;3.90;72.90;;;;;;5054477;28;20123;-69
2023/02/04 00:05:42;;;;;;;6.63;2.88;;;3.90;73.30;;;;;;5055569;28;20032;-69
2023/02/04 00:08:11;;;;;;;6.35;2.60;;;3.90;72.90;;;;;;5053137;28;20029;-69
2023/02/04 00:10:36;;;;;;;5.60;3.03;;;3.90;72.60;;;;;;5058354;28;20033;-69
2023/02/04 00:13:02;;;;;;;4.68;2.50;;;3.90;72.10;;;;;;5058350;28;20329;-69
2023/02/04 00:15:28;;;;;;;6.50;3.30;;;3.90;71.40;;;;;;5059468;28;20037;-68
2023/02/04 00:17:54;;;;;;;8.73;3.95;;;3.90;71.10;;;;;;5059474;28;20108;-68
2023/02/04 00:20:19;;;;;;;9.10;4.20;;;3.90;70.70;;;;;;5059229;28;20098;-68
2023/02/04 00:22:48;;;;;;;5.35;3.20;;;3.90;70.20;;;;;;5059237;28;20029;-68
2023/02/04 00:25:14;;;;;;;8.15;3.90;;;3.90;69.60;;;;;;5057919;28;20433;-67
2023/02/04 00:27:39;;;;;;;7.15;4.18;;;4.00;69.40;;;;;;5057952;28;20071;-70
2023/02/04 00:30:06;;;;;;;7.55;3.30;;;4.00;69.10;;;;;;5059199;28;20029;-70
2023/02/04 00:32:31;;;;;;;9.63;4.13;;;3.90;69.00;;;;;;5059016;28;20028;-69
2023/02/04 00:34:57;;;;;;;8.73;4.28;;;3.90;69.20;;;;;;5059029;28;20032;-69
2023/02/04 00:37:23;;;;;;;6.65;3.78;;;4.00;68.70;;;;;;5058980;28;20013;-69
2023/02/04 00:39:48;;;;;;;5.45;3.13;;;4.00;68.40;;;;;;5057497;28;20021;-69
2023/02/04 00:42:15;;;;;;;6.07;3.00;;;4.00;68.20;;;;;;5051627;28;20457;-69
2023/02/04 00:44:40;;;;;;;8.93;3.13;;;4.00;68.10;;;;;;5038904;28;20440;-69
2023/02/04 00:47:06;;;;;;;6.05;3.72;;;4.00;68.00;;;;;;5038921;28;20060;-69
2023/02/04 00:49:34;;;;;;;8.40;4.50;;;4.00;67.60;;;;;;5038790;28;20063;-69
2023/02/04 00:52:01;;;;;;;15.63;7.45;;;4.00;67.90;;;;;;5038530;28;20040;-69
2023/02/04 00:54:27;;;;;;;7.85;4.10;;;4.00;67.70;;;;;;5037588;28;20410;-68
2023/02/04 00:56:52;;;;;;;14.43;7.63;;;4.00;67.60;;;;;;5052557;28;20486;-69
2023/02/04 00:59:18;;;;;;;11.50;6.90;;;4.00;67.60;;;;;;5054536;28;20104;-69
2023/02/04 01:01:43;;;;;;;10.25;5.45;;;4.00;67.50;;;;;;5038491;28;20031;-68
2023/02/04 01:04:09;;;;;;;10.52;6.10;;;4.10;67.10;;;;;;5037453;28;20030;-68
2023/02/04 01:06:35;;;;;;;9.30;5.22;;;4.10;67.20;;;;;;5038569;28;20029;-68
2023/02/04 01:09:01;;;;;;;9.30;4.95;;;4.10;67.10;;;;;;5037139;28;20088;-68
2023/02/04 01:11:27;;;;;;;11.63;5.57;;;4.10;66.80;;;;;;5047310;28;20025;-68
2023/02/04 01:13:53;;;;;;;10.05;5.55;;;4.10;66.90;;;;;;5058374;28;20021;-68
2023/02/04 01:16:19;;;;;;;9.10;4.90;;;4.10;66.70;;;;;;5058320;28;20021;-68
2023/02/04 01:18:44;;;;;;;11.00;5.68;;;4.10;66.60;;;;;;5058436;28;20045;-68
2023/02/04 01:21:10;;;;;;;12.27;6.65;;;4.10;66.50;;;;;;5057493;28;20479;-68
2023/02/04 01:23:36;;;;;;;16.95;8.77;;;4.10;66.40;;;;;;5056936;28;20029;-68
2023/02/04 01:26:05;;;;;;;14.38;7.57;;;4.10;66.40;;;;;;5056925;28;20116;-68
2023/02/04 01:28:30;;;;;;;9.30;5.28;;;4.10;66.30;;;;;;5058139;28;20046;-68
2023/02/04 01:30:56;;;;;;;5.90;3.58;;;4.10;66.30;;;;;;5058161;28;20025;-68
2023/02/04 01:33:21;;;;;;;7.68;4.55;;;4.10;66.00;;;;;;5057984;28;20155;-68
2023/02/04 01:35:47;;;;;;;10.73;5.80;;;4.20;66.10;;;;;;5058040;28;20044;-68
2023/02/04 01:38:13;;;;;;;12.05;7.05;;;4.10;66.40;;;;;;5056610;28;20056;-68
2023/02/04 01:40:39;;;;;;;9.70;4.82;;;4.10;66.20;;;;;;5055628;28;20025;-68
2023/02/04 01:43:05;;;;;;;9.73;6.25;;;4.20;65.80;;;;;;5056948;28;20309;-68
2023/02/04 01:45:33;;;;;;;10.10;6.32;;;4.20;65.90;;;;;;5057777;28;20116;-69
2023/02/04 01:47:59;;;;;;;10.60;6.15;;;4.20;65.80;;;;;;5058637;28;20048;-68
2023/02/04 01:50:25;;;;;;;7.60;4.55;;;4.20;65.80;;;;;;5057695;28;20033;-68
2023/02/04 01:52:51;;;;;;;13.65;8.35;;;4.20;65.90;;;;;;5056970;28;20059;-68
2023/02/04 01:55:20;;;;;;;9.95;5.38;;;4.20;65.80;;;;;;5056144;28;20389;-69
2023/02/04 01:57:46;;;;;;;12.00;7.05;;;4.30;65.80;;;;;;5057521;28;20496;-68
2023/02/04 02:00:25;;;;;;;13.82;6.80;;;4.30;65.60;;;;;;5057515;28;20096;-69
2023/02/04 02:02:51;;;;;;;19.13;6.38;;;4.30;65.70;;;;;;5057620;28;20090;-69
2023/02/04 02:05:22;;;;;;;19.15;8.20;;;4.30;65.60;;;;;;5057418;28;20369;-69
2023/02/04 02:07:52;;;;;;;17.05;7.93;;;4.30;65.70;;;;;;5055954;28;20100;-68
2023/02/04 02:10:18;;;;;;;9.18;5.68;;;4.40;65.60;;;;;;5057201;28;20398;-69
2023/02/04 02:12:45;;;;;;;10.77;7.20;;;4.30;65.60;;;;;;5057275;28;20027;-68
2023/02/04 02:15:12;;;;;;;13.55;6.88;;;4.30;65.60;;;;;;5057459;28;20346;-68
2023/02/04 02:17:38;;;;;;;14.18;7.35;;;4.40;65.50;;;;;;5057122;28;20073;-69
2023/02/04 02:20:11;;;;;;;15.70;7.95;;;4.40;65.50;;;;;;5051107;28;20318;-68
2023/02/04 02:23:11;;;;;;;32.70;8.40;;;4.30;65.50;;;;;;5037156;28;20302;-69
2023/02/04 02:25:37;;;;;;;24.27;7.15;;;4.40;65.50;;;;;;5037047;28;20037;-69
2023/02/04 02:28:06;;;;;;;28.02;9.98;;;4.40;65.40;;;;;;5036986;28;20054;-69
2023/02/04 02:30:32;;;;;;;31.77;9.32;;;4.40;65.50;;;;;;5036909;28;20064;-69
2023/02/04 02:32:57;;;;;;;20.45;7.82;;;4.40;65.50;;;;;;5034867;28;20059;-69
2023/02/04 02:35:23;;;;;;;17.50;8.52;;;4.40;65.40;;;;;;5035398;28;20030;-68
2023/02/04 02:37:49;;;;;;;19.33;10.18;;;4.40;65.40;;;;;;5036616;28;20078;-69
2023/02/04 02:40:14;;;;;;;16.02;7.43;;;4.40;65.40;;;;;;5036026;28;20029;-68
2023/02/04 02:42:42;;;;;;;55.50;9.85;;;4.50;65.30;;;;;;5036904;28;20034;-68
2023/02/04 02:45:19;;;;;;;29.20;10.40;;;4.50;65.30;;;;;;5052321;28;20074;-68
2023/02/04 02:47:45;;;;;;;12.13;7.43;;;4.50;65.30;;;;;;5036643;28;20295;-68
2023/02/04 02:50:15;;;;;;;17.75;9.30;;;4.50;65.30;;;;;;5051437;28;20028;-69
2023/02/04 02:52:41;;;;;;;13.73;7.90;;;4.50;65.30;;;;;;5055519;28;20029;-68
2023/02/04 02:55:16;;;;;;;22.52;9.35;;;4.50;65.30;;;;;;5055276;28;20036;-68
2023/02/04 02:57:43;;;;;;;27.10;9.90;;;4.50;65.30;;;;;;5056644;28;20044;-69
2023/02/04 03:00:22;;;;;;;21.63;9.00;;;4.50;65.30;;;;;;5055068;28;20025;-68
2023/02/04 03:03:03;;;;;;;14.25;7.93;;;4.60;65.20;;;;;;5056387;28;20048;-68
2023/02/04 03:05:32;;;;;;;23.55;10.35;;;4.60;65.20;;;;;;5056428;28;20038;-68
2023/02/04 03:07:59;;;;;;;32.75;11.85;;;4.60;65.30;;;;;;5054934;28;20025;-68
2023/02/04 03:10:24;;;;;;;74.00;11.52;;;4.50;65.30;;;;;;5055021;28;20040;-68
2023/02/04 03:12:50;;;;;;;46.72;10.02;;;4.60;65.10;;;;;;5056288;28;20025;-68
2023/02/04 03:15:16;;;;;;;52.67;10.80;;;4.60;65.20;;;;;;5045107;28;20029;-68
2023/02/04 03:17:43;;;;;;;41.97;11.00;;;4.60;65.20;;;;;;5036340;28;20026;-67
2023/02/04 03:20:09;;;;;;;46.53;9.60;;;4.60;65.20;;;;;;5036100;28;20108;-68
2023/02/04 03:22:37;;;;;;;32.70;9.60;;;4.60;65.10;;;;;;5036050;28;20327;-70
2023/02/04 03:25:03;;;;;;;83.43;11.70;;;4.60;65.10;;;;;;5034829;28;20041;-70
2023/02/04 03:27:29;;;;;;;217.50;17.42;;;4.60;65.00;;;;;;5034932;28;20029;-69
2023/02/04 03:29:54;;;;;;;17.23;8.63;;;4.60;65.10;;;;;;5044426;28;20023;-69
2023/02/04 03:32:26;;;;;;;13.25;7.97;;;4.60;65.10;;;;;;5055860;28;20418;-69
2023/02/04 03:34:51;;;;;;;22.50;10.25;;;4.60;65.10;;;;;;5053912;28;20083;-69
2023/02/04 03:37:17;;;;;;;40.22;9.07;;;4.70;65.00;;;;;;5054898;28;20029;-68
2023/02/04 03:39:42;;;;;;;18.73;8.82;;;4.70;65.00;;;;;;5053540;28;20033;-69
2023/02/04 03:42:11;;;;;;;19.05;10.18;;;4.70;65.00;;;;;;5055894;28;20040;-69
2023/02/04 03:44:36;;;;;;;24.00;11.23;;;4.60;65.00;;;;;;5054203;28;20074;-69
2023/02/04 03:47:02;;;;;;;13.50;7.90;;;4.60;65.00;;;;;;5055770;28;20052;-68
2023/02/04 03:49:27;;;;;;;16.25;8.07;;;4.70;65.00;;;;;;5055815;28;20029;-69
2023/02/04 03:51:53;;;;;;;8.40;5.22;;;4.70;65.00;;;;;;5055585;28;20032;-69
2023/02/04 03:54:18;;;;;;;8.80;5.32;;;4.70;65.00;;;;;;5054529;28;20314;-69
2023/02/04 03:56:44;;;;;;;11.75;5.07;;;4.70;65.00;;;;;;5055724;28;20310;-69
2023/02/04 03:59:09;;;;;;;8.57;4.38;;;4.70;65.00;;;;;;5054450;28;20025;-70
2023/02/04 04:01:35;;;;;;;9.02;4.90;;;4.70;64.90;;;;;;5055716;28;20037;-69
2023/02/04 04:04:00;;;;;;;9.80;5.28;;;4.60;64.90;;;;;;5055564;28;20025;-69
2023/02/04 04:06:26;;;;;;;9.63;5.18;;;4.70;64.90;;;;;;5055736;28;20105;-70
2023/02/04 04:08:52;;;;;;;8.55;4.45;;;4.60;64.90;;;;;;5054490;28;20057;-69
2023/02/04 04:11:17;;;;;;;2.80;1.50;;;4.70;64.90;;;;;;5055418;28;20091;-69
2023/02/04 04:13:43;;;;;;;5.55;1.80;;;4.70;64.80;;;;;;5052025;28;20029;-70
2023/02/04 04:16:08;;;;;;;7.57;2.85;;;4.70;64.90;;;;;;5035598;28;20039;-69
2023/02/04 04:18:34;;;;;;;5.50;2.15;;;4.60;64.90;;;;;;5035672;28;20025;-70
2023/02/04 04:21:00;;;;;;;4.90;2.35;;;4.70;64.80;;;;;;5035462;28;20088;-69
2023/02/04 04:23:26;;;;;;;4.97;2.75;;;4.60;64.80;;;;;;5034435;28;20053;-69
2023/02/04 04:25:52;;;;;;;5.55;2.65;;;4.60;64.80;;;;;;5035420;28;20099;-70
2023/02/04 04:28:17;;;;;;;5.18;2.53;;;4.60;64.80;;;;;;5039481;28;20065;-69
2023/02/04 04:30:43;;;;;;;4.88;2.67;;;4.60;64.70;;;;;;5055466;28;20033;-69
2023/02/04 04:33:08;;;;;;;6.70;3.45;;;4.60;64.80;;;;;;5055316;28;20036;-69
2023/02/04 04:35:34;;;;;;;6.15;3.33;;;4.60;64.80;;;;;;5054267;28;20337;-69
2023/02/04 04:38:01;;;;;;;6.88;3.40;;;4.60;64.80;;;;;;5054228;28;20333;-69
2023/02/04 04:40:26;;;;;;;6.45;3.67;;;4.60;64.70;;;;;;5055216;28;20032;-69
2023/02/04 04:42:55;;;;;;;10.20;4.45;;;4.60;64.70;;;;;;5051498;28;20025;-69
2023/02/04 04:45:20;;;;;;;8.82;4.50;;;4.60;64.80;;;;;;5033620;28;20033;-69
2023/02/04 04:47:46;;;;;;;7.35;4.13;;;4.60;64.70;;;;;;5035409;28;20411;-69
2023/02/04 04:50:12;;;;;;;7.30;3.67;;;4.60;64.80;;;;;;5035442;28;20116;-69
2023/02/04 04:52:37;;;;;;;5.30;2.60;;;4.60;64.80;;;;;;5035300;28;20033;-69
2023/02/04 04:55:04;;;;;;;4.63;2.65;;;4.60;64.80;;;;;;5034150;28;20022;-69
2023/02/04 04:57:30;;;;;;;5.97;3.00;;;4.50;64.70;;;;;;5036677;28;20049;-69
2023/02/04 04:59:55;;;;;;;5.50;3.10;;;4.50;64.80;;;;;;5045908;28;20416;-69
2023/02/04 05:02:21;;;;;;;6.45;3.30;;;4.50;64.70;;;;;;5058741;28;20074;-69
2023/02/04 05:04:46;;;;;;;5.68;3.55;;;4.50;64.80;;;;;;5058431;28;20024;-69
2023/02/04 05:07:12;;;;;;;8.23;3.97;;;4.40;64.80;;;;;;5058682;28;20032;-69
2023/02/04 05:09:37;;;;;;;6.60;3.90;;;4.40;64.80;;;;;;5057328;28;20029;-69
2023/02/04 05:12:03;;;;;;;8.75;4.78;;;4.40;65.00;;;;;;5058374;28;20067;-69
2023/02/04 05:14:28;;;;;;;5.93;3.47;;;4.30;65.10;;;;;;5057342;28;20029;-69
2023/02/04 05:16:54;;;;;;;6.03;3.33;;;4.30;65.10;;;;;;5051968;28;20300;-68
2023/02/04 05:19:20;;;;;;;6.13;3.40;;;4.30;65.00;;;;;;5038426;28;20037;-69
2023/02/04 05:21:45;;;;;;;19.83;10.07;;;4.30;65.10;;;;;;5037304;28;20097;-69
2023/02/04 05:24:11;;;;;;;6.38;2.80;;;4.20;65.40;;;;;;5036940;28;20026;-69
2023/02/04 05:26:36;;;;;;;6.63;3.03;;;4.20;65.50;;;;;;5038067;28;20025;-69
2023/02/04 05:29:02;;;;;;;4.53;2.10;;;4.20;65.70;;;;;;5038111;28;20317;-69
2023/02/04 05:31:30;;;;;;;7.40;4.30;;;4.20;65.70;;;;;;5050722;28;20041;-69
2023/02/04 05:33:56;;;;;;;4.68;2.45;;;4.10;66.00;;;;;;5056898;28;20021;-69
2023/02/04 05:36:22;;;;;;;10.65;7.25;;;4.10;66.30;;;;;;5058064;28;20021;-69
2023/02/04 05:38:47;;;;;;;5.95;2.85;;;4.10;66.60;;;;;;5056940;28;20410;-68
2023/02/04 05:41:13;;;;;;;6.68;2.90;;;4.10;66.50;;;;;;5057813;28;20029;-68
2023/02/04 05:43:38;;;;;;;8.93;4.05;;;4.00;66.60;;;;;;5058110;28;20082;-68
2023/02/04 05:46:04;;;;;;;7.72;3.05;;;4.00;66.60;;;;;;5056596;28;20402;-68
2023/02/04 05:48:30;;;;;;;14.15;6.75;;;4.00;66.60;;;;;;5057697;28;20085;-68
2023/02/04 05:50:55;;;;;;;8.77;4.00;;;4.00;66.50;;;;;;5057737;28;20111;-68
2023/02/04 05:53:21;;;;;;;17.95;7.63;;;4.00;66.50;;;;;;5056599;28;20064;-68
2023/02/04 05:55:47;;;;;;;17.65;6.65;;;4.00;66.50;;;;;;5057751;28;20037;-68
2023/02/04 05:58:12;;;;;;;10.32;3.63;;;4.00;66.30;;;;;;5057464;28;20046;-68
2023/02/04 06:00:38;;;;;;;11.48;4.50;;;3.90;66.60;;;;;;5048661;28;20029;-68
2023/02/04 06:03:04;;;;;;;12.57;4.78;;;3.90;66.40;;;;;;5037523;28;20030;-68
2023/02/04 06:05:29;;;;;;;8.07;4.18;;;3.90;66.30;;;;;;5037521;28;20121;-68
2023/02/04 06:07:55;;;;;;;13.20;5.03;;;4.00;66.20;;;;;;5036064;28;20029;-68
2023/02/04 06:10:20;;;;;;;11.50;5.55;;;4.00;65.90;;;;;;5037351;28;20033;-67
2023/02/04 06:12:47;;;;;;;8.05;4.28;;;4.00;65.60;;;;;;5037387;28;20026;-67
2023/02/04 06:15:13;;;;;;;13.20;5.88;;;4.00;65.90;;;;;;5036802;28;20036;-69
2023/02/04 06:17:40;;;;;;;11.13;6.32;;;4.00;65.90;;;;;;5037217;28;20330;-69
2023/02/04 06:20:06;;;;;;;11.85;6.65;;;4.00;66.00;;;;;;5037333;28;20045;-69
2023/02/04 06:22:32;;;;;;;19.85;11.63;;;4.00;65.90;;;;;;5036427;28;20075;-69
2023/02/04 06:24:57;;;;;;;18.13;11.38;;;4.00;65.80;;;;;;5036032;28;20073;-68
2023/02/04 06:27:23;;;;;;;21.10;10.55;;;3.90;65.90;;;;;;5037103;28;20393;-68
2023/02/04 06:29:50;;;;;;;16.73;7.78;;;3.90;65.80;;;;;;5039630;28;20029;-68
2023/02/04 06:32:16;;;;;;;15.63;7.35;;;3.90;65.70;;;;;;5056944;28;20103;-68
2023/02/04 06:34:41;;;;;;;13.50;6.95;;;4.00;65.40;;;;;;5056801;28;20024;-68
2023/02/04 06:37:07;;;;;;;11.32;6.05;;;4.00;65.60;;;;;;5057017;28;20025;-68
2023/02/04 06:39:33;;;;;;;18.70;7.43;;;4.00;65.40;;;;;;5055694;28;20402;-68
2023/02/04 06:42:01;;;;;;;15.07;7.05;;;3.90;65.70;;;;;;5056752;28;20033;-68
2023/02/04 06:44:26;;;;;;;11.35;5.35;;;3.90;65.60;;;;;;5055444;28;20299;-68
2023/02/04 06:46:52;;;;;;;13.95;7.20;;;3.90;65.60;;;;;;5049482;28;20059;-68
2023/02/04 06:49:18;;;;;;;18.80;9.25;;;3.90;65.70;;;;;;5036729;28;20055;-68
2023/02/04 06:51:47;;;;;;;16.55;9.93;;;3.80;65.70;;;;;;5036511;28;20040;-68
2023/02/04 06:54:13;;;;;;;22.73;12.00;;;3.80;65.50;;;;;;5035267;28;20427;-68
2023/02/04 06:56:38;;;;;;;14.88;8.10;;;3.80;65.70;;;;;;5036499;28;20041;-68
2023/02/04 06:59:04;;;;;;;13.75;8.52;;;3.80;65.50;;;;;;5035669;28;20428;-68
2023/02/04 07:01:29;;;;;;;23.20;10.52;;;3.90;65.20;;;;;;5044062;28;20037;-68
2023/02/04 07:03:55;;;;;;;15.82;9.02;;;3.90;65.40;;;;;;5056391;28;20025;-68
2023/02/04 07:06:20;;;;;;;31.63;16.98;;;3.90;65.60;;;;;;5051180;28;20065;-68
2023/02/04 07:08:48;;;;;;;79.80;29.15;;;3.80;65.80;;;;;;5034710;28;20036;-68
2023/02/04 07:11:14;;;;;;;71.32;28.02;;;3.80;65.70;;;;;;5036177;28;20104;-68
2023/02/04 07:13:39;;;;;;;45.78;19.95;;;3.80;65.40;;;;;;5036181;28;20117;-68
2023/02/04 07:16:06;;;;;;;45.63;22.52;;;3.80;65.40;;;;;;5035695;28;20029;-68
2023/02/04 07:18:31;;;;;;;39.80;22.02;;;3.80;65.50;;;;;;5046995;28;20115;-68
2023/02/04 07:20:57;;;;;;;28.02;16.13;;;3.80;65.50;;;;;;5036164;28;20097;-68
2023/02/04 07:23:24;;;;;;;12.70;6.47;;;3.80;65.40;;;;;;5052463;28;20033;-68
2023/02/04 07:25:52;;;;;;;13.30;6.57;;;3.90;64.80;;;;;;5055970;28;20040;-68
2023/02/04 07:28:18;;;;;;;13.23;6.50;;;4.00;64.80;;;;;;5055888;28;20028;-68
2023/02/04 07:30:43;;;;;;;25.65;14.07;;;4.10;65.40;;;;;;5053625;28;20468;-68
2023/02/04 07:33:09;;;;;;;29.70;17.77;;;4.00;65.70;;;;;;5055160;28;20098;-68
2023/02/04 07:35:34;;;;;;;25.98;15.00;;;3.90;65.60;;;;;;5055754;28;20043;-68
2023/02/04 07:38:00;;;;;;;39.20;22.83;;;4.00;65.40;;;;;;5054519;28;20406;-68
2023/02/04 07:40:25;;;;;;;29.75;18.58;;;4.00;65.40;;;;;;5055824;28;20082;-68
2023/02/04 07:42:51;;;;;;;32.35;17.65;;;4.00;65.50;;;;;;5055732;28;20028;-68
2023/02/04 07:45:16;;;;;;;23.48;14.60;;;4.00;65.60;;;;;;5053621;28;20024;-68
2023/02/04 07:47:42;;;;;;;19.33;14.93;;;4.00;65.50;;;;;;5055659;28;20025;-68
2023/02/04 07:50:08;;;;;;;23.95;11.00;;;4.00;65.50;;;;;;5054960;28;20172;-67
2023/02/04 07:52:33;;;;;;;18.70;10.13;;;4.00;65.60;;;;;;5055583;28;20314;-68
2023/02/04 07:54:59;;;;;;;24.80;13.15;;;3.90;65.60;;;;;;5045471;28;20060;-68
2023/02/04 07:57:24;;;;;;;20.02;10.15;;;4.00;65.70;;;;;;5035026;28;20036;-68
2023/02/04 07:59:50;;;;;;;17.65;10.15;;;4.00;65.80;;;;;;5049997;28;20029;-68
2023/02/04 08:02:16;;;;;;;18.17;9.65;;;3.90;66.40;;;;;;5055704;28;20456;-68
2023/02/04 08:04:41;;;;;;;17.00;10.70;;;3.90;66.30;;;;;;5050614;28;20095;-68
2023/02/04 08:07:07;;;;;;;19.17;8.52;;;4.00;66.30;;;;;;5035374;28;20033;-68
2023/02/04 08:09:33;;;;;;;20.65;10.75;;;4.00;66.50;;;;;;5049510;28;20025;-68
2023/02/04 08:11:58;;;;;;;26.08;11.82;;;4.00;66.80;;;;;;5035455;28;20407;-68
2023/02/04 08:14:24;;;;;;;26.33;10.07;;;4.00;67.00;;;;;;5036108;28;20037;-68
2023/02/04 08:16:53;;;;;;;19.50;10.13;;;3.90;67.10;;;;;;5036445;28;20037;-68
2023/02/04 08:19:20;;;;;;;18.48;9.10;;;4.00;66.80;;;;;;5033405;28;20025;-68
2023/02/04 08:21:46;;;;;;;14.65;8.82;;;4.10;66.80;;;;;;5020937;28;20025;-68
2023/02/04 08:24:13;;;;;;;17.77;9.30;;;4.10;66.70;;;;;;5023039;28;20030;-68
2023/02/04 08:26:39;;;;;;;20.33;10.57;;;4.20;67.10;;;;;;5021246;28;20091;-68
2023/02/04 08:29:04;;;;;;;22.60;9.38;;;4.20;67.60;;;;;;5030228;28;20025;-68
2023/02/04 08:31:30;;;;;;;25.40;10.45;;;4.20;68.40;;;;;;5027184;28;20072;-68
2023/02/04 08:33:56;;;;;;;28.85;10.90;;;4.10;68.50;;;;;;5024906;28;20057;-68
2023/02/04 08:36:21;;;;;;;23.42;7.90;;;4.10;69.70;;;;;;5025204;28;20176;-68
2023/02/04 08:38:47;;;;;;;21.48;8.60;;;4.00;71.50;;;;;;5029539;28;20037;-68
2023/02/04 08:41:12;;;;;;;20.70;8.40;;;4.00;71.20;;;;;;5044708;28;20367;-68
2023/02/04 08:43:38;;;;;;;21.65;7.63;;;4.00;72.00;;;;;;5047692;28;20489;-68
2023/02/04 08:46:04;;;;;;;24.50;9.82;;;4.10;72.80;;;;;;5030734;28;20025;-68
2023/02/04 08:48:30;;;;;;;19.38;8.45;;;4.20;74.40;;;;;;5050650;28;20039;-68
2023/02/04 08:50:55;;;;;;;28.25;9.25;;;4.30;76.90;;;;;;5031119;28;20037;-68
2023/02/04 08:53:21;;;;;;;24.33;9.68;;;4.30;78.00;;;;;;5031674;28;20022;-69
2023/02/04 08:55:46;;;;;;;24.60;8.82;;;4.30;80.50;;;;;;5037237;28;20032;-68
2023/02/04 08:58:12;;;;;;;22.85;8.32;;;4.40;81.30;;;;;;5037539;28;20029;-68
2023/02/04 09:00:38;;;;;;;30.10;12.13;;;4.40;82.40;;;;;;5051605;28;20067;-68
2023/02/04 09:03:03;;;;;;;27.00;7.50;;;4.40;83.80;;;;;;5040042;28;20018;-68
2023/02/04 09:05:29;;;;;;;22.35;7.78;;;4.40;87.70;;;;;;5040822;28;20447;-67
2023/02/04 09:07:54;;;;;;;24.35;7.85;;;4.40;88.70;;;;;;5034608;28;20105;-68
2023/02/04 09:10:20;;;;;;;20.08;8.88;;;4.50;88.00;;;;;;5038074;28;20484;-70
2023/02/04 09:12:45;;;;;;;21.70;8.05;;;4.60;88.20;;;;;;5049746;28;20079;-69
2023/02/04 09:15:14;;;;;;;24.92;8.63;;;4.60;87.60;;;;;;5034928;28;20036;-68
2023/02/04 09:17:42;;;;;;;23.52;8.80;;;4.50;88.50;;;;;;5036089;28;20492;-68
2023/02/04 09:20:09;;;;;;;30.25;8.27;;;4.60;87.90;;;;;;5035558;28;20418;-68
2023/02/04 09:22:36;;;;;;;25.23;7.93;;;4.70;87.50;;;;;;5036198;28;20135;-68
2023/02/04 09:25:03;;;;;;;20.90;7.75;;;4.70;89.40;;;;;;5036589;28;20065;-68
2023/02/04 09:27:28;;;;;;;24.13;7.80;;;4.60;89.20;;;;;;5035954;28;20475;-68
2023/02/04 09:29:54;;;;;;;24.95;8.07;;;4.60;89.60;;;;;;5045639;28;20029;-68
2023/02/04 09:32:19;;;;;;;25.02;9.63;;;4.40;91.10;;;;;;5038848;28;20124;-68
2023/02/04 09:34:45;;;;;;;31.30;10.35;;;4.20;89.60;;;;;;5037454;28;20064;-68
2023/02/04 09:37:10;;;;;;;27.63;9.38;;;4.10;88.20;;;;;;5037948;28;20025;-67
2023/02/04 09:39:36;;;;;;;31.77;10.27;;;4.10;87.70;;;;;;5040001;28;20025;-68
2023/02/04 09:42:02;;;;;;;33.88;9.52;;;4.10;87.70;;;;;;5037207;28;20036;-68
2023/02/04 09:44:28;;;;;;;24.77;10.27;;;4.10;88.50;;;;;;5047029;28;20029;-67
2023/02/04 09:46:56;;;;;;;32.55;10.80;;;4.00;88.80;;;;;;5051326;28;20029;-68
2023/02/04 09:49:22;;;;;;;29.13;10.20;;;3.90;86.60;;;;;;5047523;28;20091;-68
2023/02/04 09:51:48;;;;;;;31.92;12.27;;;4.00;84.50;;;;;;5037786;28;20428;-68
2023/02/04 09:54:20;;;;;;;21.25;10.77;;;4.10;84.70;;;;;;5039424;28;20017;-68
2023/02/04 09:56:46;;;;;;;28.25;10.63;;;4.20;84.50;;;;;;5037084;28;20391;-68
2023/02/04 09:59:16;;;;;;;22.50;9.65;;;4.40;84.30;;;;;;5036511;28;20041;-67
2023/02/04 10:01:41;;;;;;;23.75;8.43;;;4.60;84.80;;;;;;5050452;28;20429;-67
2023/02/04 10:04:13;;;;;;;18.75;6.30;;;4.80;88.80;;;;;;5044294;28;20044;-67
2023/02/04 10:06:41;;;;;;;23.02;7.25;;;5.00;91.60;;;;;;5057393;28;20065;-68
2023/02/04 10:09:10;;;;;;;22.05;7.15;;;5.20;94.00;;;;;;5055072;28;20029;-67
2023/02/04 10:11:38;;;;;;;24.25;6.57;;;5.40;95.60;;;;;;5043938;28;20037;-67
2023/02/04 10:14:03;;;;;;;18.00;5.55;;;5.60;97.20;;;;;;5037236;28;20036;-67
2023/02/04 10:16:31;;;;;;;15.88;5.78;;;5.80;98.00;;;;;;5043624;28;20029;-68
2023/02/04 10:19:02;;;;;;;21.55;7.03;;;6.00;98.00;;;;;;5048214;28;20029;-67
2023/02/04 10:21:31;;;;;;;27.40;5.55;;;6.00;98.00;;;;;;5037172;28;20030;-67
2023/02/04 10:23:58;;;;;;;20.92;6.00;;;5.90;98.00;;;;;;5035890;28;20026;-67
2023/02/04 10:26:30;;;;;;;20.10;5.55;;;5.70;98.00;;;;;;5037184;28;20125;-68
2023/02/04 10:28:59;;;;;;;17.63;4.50;;;6.50;98.00;;;;;;5037804;28;20108;-68
2023/02/04 10:31:28;;;;;;;16.40;4.47;;;7.30;98.00;;;;;;5037036;28;20117;-67
2023/02/04 10:34:11;;;;;;;15.90;4.47;;;7.20;98.00;;;;;;5039104;28;20014;-68
2023/02/04 10:36:39;;;;;;;17.50;4.22;;;7.00;98.00;;;;;;5037746;28;20056;-67
2023/02/04 10:39:19;;;;;;;21.25;5.10;;;7.40;98.00;;;;;;5035390;28;20017;-68
2023/02/04 10:41:56;;;;;;;26.02;7.53;;;8.60;97.50;;;;;;5048459;28;20095;-68
2023/02/04 10:44:30;;;;;;;20.50;4.70;;;9.90;92.10;;;;;;5056573;28;20025;-68
2023/02/04 10:47:12;;;;;;;14.80;3.97;;;10.20;90.00;;;;;;5056475;28;20295;-68
2023/02/04 10:49:38;;;;;;;19.80;4.95;;;9.70;90.10;;;;;;5051525;28;20056;-68
2023/02/04 10:52:15;;;;;;;19.08;4.47;;;9.20;90.60;;;;;;5048372;28;20422;-68
2023/02/04 10:54:41;;;;;;;19.55;4.55;;;9.10;89.70;;;;;;5038196;28;20099;-68
2023/02/04 10:57:17;;;;;;;13.70;3.83;;;8.70;91.40;;;;;;5056468;28;20414;-68
2023/02/04 10:59:44;;;;;;;20.10;5.65;;;9.50;91.00;;;;;;5055468;28;20111;-68
2023/02/04 11:02:44;;;;;;;15.32;3.72;;;10.50;90.10;;;;;;5056309;28;20060;-67
2023/02/04 11:05:18;;;;;;;16.17;4.57;;;10.70;86.90;;;;;;5036249;28;20037;-67
2023/02/04 11:07:45;;;;;;;12.45;4.07;;;11.50;88.00;;;;;;5034909;28;20029;-66
2023/02/04 11:10:17;;;;;;;12.30;3.42;;;12.10;83.00;;;;;;5035515;28;20128;-67
2023/02/04 11:13:04;;;;;;;13.95;3.53;;;11.60;80.30;;;;;;5035608;28;20318;-67
2023/02/04 11:15:49;;;;;;;14.10;3.75;;;10.50;85.40;;;;;;5036216;28;20036;-68
2023/02/04 11:18:21;;;;;;;15.05;4.18;;;9.80;87.00;;;;;;5040352;28;20017;-68
2023/02/04 11:20:52;;;;;;;13.05;4.50;;;9.90;89.10;;;;;;5043601;28;20037;-68
2023/02/04 11:23:29;;;;;;;15.52;4.53;;;9.50;87.50;;;;;;5045351;28;20025;-67
2023/02/04 11:26:01;;;;;;;15.00;4.03;;;9.30;88.50;;;;;;5046881;28;20046;-67
2023/02/04 11:28:27;;;;;;;16.38;4.93;;;10.00;86.50;;;;;;5047845;28;20033;-67
2023/02/04 11:31:05;;;;;;;22.13;4.97;;;10.30;86.40;;;;;;5053154;28;20043;-67
2023/02/04 11:33:40;;;;;;;14.43;3.67;;;11.10;85.80;;;;;;5042818;28;20029;-67
2023/02/04 11:36:08;;;;;;;13.45;3.20;;;11.80;83.00;;;;;;5046156;28;20025;-67
2023/02/04 11:38:34;;;;;;;14.65;3.42;;;12.20;81.70;;;;;;5045051;28;20430;-67
2023/02/04 11:41:00;;;;;;;17.98;5.97;;;12.20;80.10;;;;;;5041805;28;20030;-67
2023/02/04 11:43:26;;;;;;;16.33;4.00;;;11.70;82.10;;;;;;5049649;28;20048;-67
2023/02/04 11:46:13;;;;;;;14.15;3.10;;;11.50;82.40;;;;;;5049850;28;20032;-67
2023/02/04 11:48:39;;;;;;;12.00;3.35;;;11.30;80.70;;;;;;5047180;28;20116;-66
2023/02/04 11:51:14;;;;;;;15.20;3.95;;;11.50;80.70;;;;;;5035732;28;20389;-66
2023/02/04 11:53:43;;;;;;;13.10;3.05;;;11.30;80.50;;;;;;5033620;28;20354;-66
2023/02/04 11:56:22;;;;;;;15.40;3.40;;;11.40;77.70;;;;;;5045723;28;20028;-66
2023/02/04 11:58:49;;;;;;;15.70;3.60;;;11.70;77.70;;;;;;5042795;28;20025;-65
2023/02/04 12:01:20;;;;;;;10.82;3.00;;;11.90;78.40;;;;;;5037041;28;20022;-65
2023/02/04 12:03:48;;;;;;;13.88;3.65;;;12.00;77.50;;;;;;5034953;28;20291;-65
2023/02/04 12:06:25;;;;;;;12.52;2.65;;;11.70;77.50;;;;;;5041001;28;20033;-66
2023/02/04 12:08:51;;;;;;;9.57;2.40;;;10.90;78.00;;;;;;5052944;28;20030;-66
2023/02/04 12:11:29;;;;;;;15.88;3.15;;;9.70;82.00;;;;;;5039651;28;20322;-66
2023/02/04 12:13:56;;;;;;;13.95;3.42;;;9.20;82.70;;;;;;5039477;28;20026;-66
2023/02/04 12:16:22;;;;;;;13.60;3.25;;;8.80;84.30;;;;;;5039348;28;20427;-66
2023/02/04 12:18:51;;;;;;;14.15;3.63;;;8.60;85.50;;;;;;5039371;28;20054;-66
2023/02/04 12:21:20;;;;;;;10.25;3.15;;;8.50;84.10;;;;;;5040037;28;20026;-67
2023/02/04 12:23:45;;;;;;;10.90;2.47;;;8.30;84.50;;;;;;5058200;28;20310;-67
2023/02/04 12:26:11;;;;;;;15.75;3.22;;;8.10;85.50;;;;;;5057071;28;20158;-66
2023/02/04 12:28:37;;;;;;;13.48;4.20;;;8.20;85.50;;;;;;5059498;28;20056;-66
2023/02/04 12:31:02;;;;;;;19.02;6.68;;;8.20;86.70;;;;;;5058250;28;20139;-66
2023/02/04 12:33:28;;;;;;;14.52;3.53;;;8.20;87.40;;;;;;5059258;28;20021;-66
2023/02/04 12:35:53;;;;;;;14.90;4.60;;;8.50;87.90;;;;;;5040931;28;20033;-67
2023/02/04 12:38:19;;;;;;;14.15;3.13;;;9.10;85.70;;;;;;5057755;28;20061;-67
2023/02/04 12:40:45;;;;;;;17.40;3.67;;;9.50;83.90;;;;;;5059216;28;20028;-66
2023/02/04 12:43:10;;;;;;;15.48;3.22;;;9.70;83.20;;;;;;5051339;28;20021;-66
2023/02/04 12:45:37;;;;;;;12.60;3.55;;;9.60;82.20;;;;;;5057023;28;20414;-66
2023/02/04 12:48:02;;;;;;;16.80;3.20;;;9.40;82.20;;;;;;5058967;28;20071;-66